WIC weather

Wick Airport
Wick, Scotland, United Kingdom

Public forecast

Using degrees Celsius for public forecast. Weather courtesy of forecast.io.

METAR (pilot weather report)

Retrieved 2019/03/26 09:20 UTC (26 minutes ago):

EGPC 260920Z 26012KT 9999 SCT034 09/05 Q1025

TAF (pilot weather forecast)

Closest forecast is RAF Lossiemouth, 45.9 nm (85.0 km) S. Retrieved 2019/03/26 09:40 UTC (6 minutes ago):

TAF EGQS 260735Z 2609/2703 24014KT 9999 BKN040 PROB40 TEMPO 2609/2703 SCT022 PROB40 TEMPO 2609/2621 25018G28KT